SAZT/TDL METAR and TAF weather

Enter ICAO airport designator
Station Type Date Time Source
SAZT METAR 2019/07/17 15:41 UTC NOAA

SAZT 171541Z 34017G27KT CAVOK 11/05 Q1020


Station Type Date Time Source
SAZT Decoded METAR 2019/07/17 15:41 UTC NOAA

Tandil Aerodrome, Argentina (SAZT) 37-14S 059-15W 175M
Jul 17, 2019 - 11:41 AM EDT / 2019.07.17 1541 UTC
Wind: from the NNW (340 degrees) at 20 MPH (17 KT) gusting to 31 MPH (27 KT):0
Visibility: greater than 7 mile(s):0
Temperature: 51 F (11 C)
Dew Point: 41 F (5 C)
Relative Humidity: 66%
Pressure (altimeter): 30.12 in. Hg (1020 hPa)
ob: SAZT 171541Z 34017G27KT CAVOK 11/05 Q1020
cycle: 15

Station Type Date Time Source
SAZT TAF UTC NOAA

Error!

Example: see airport list